Time,TemperatureF,DewpointF,PressureIn,WindDirection,WindDirectionDegrees,WindSpeedMPH,WindSpeedGustMPH,Humidity,HourlyPrecipIn,Conditions,Clouds,dailyrainin,SoftwareType,DateUTC
2013-12-11 00:22:00,17.0,11.0,30.33,SSW,207,0.0,3.0,76,0.00,,,0.00,,2013-12-11 05:22:00,
2013-12-11 00:43:00,17.0,11.0,30.33,South,170,0.0,1.0,77,0.00,,,0.00,,2013-12-11 05:43:00,
2013-12-11 00:53:00,17.0,11.0,30.33,South,170,0.0,2.0,76,0.00,,,0.00,,2013-12-11 05:53:00,
2013-12-11 01:12:00,17.0,11.0,30.33,South,170,0.0,1.0,76,0.00,,,0.00,,2013-12-11 06:12:00,
2013-12-11 01:22:00,17.0,11.0,30.34,South,170,0.0,2.0,77,0.00,,,0.00,,2013-12-11 06:22:00,
2013-12-11 01:42:00,18.0,12.0,30.34,South,187,0.0,2.0,76,0.00,,,0.00,,2013-12-11 06:42:00,
2013-12-11 01:52:00,18.0,11.0,30.33,SSE,155,1.0,3.0,75,0.00,,,0.00,,2013-12-11 06:52:00,
2013-12-11 02:11:00,18.0,11.0,30.33,South,169,0.0,5.0,74,0.00,,,0.00,,2013-12-11 07:11:00,
2013-12-11 02:22:00,18.0,11.0,30.33,South,170,0.0,3.0,74,0.00,,,0.00,,2013-12-11 07:22:00,
2013-12-11 02:42:00,18.0,11.0,30.34,South,170,0.0,3.0,75,0.00,,,0.00,,2013-12-11 07:42:00,
2013-12-11 02:52:00,18.0,11.0,30.34,SE,129,0.0,2.0,75,0.00,,,0.00,,2013-12-11 07:52:00,
2013-12-11 03:11:00,18.0,12.0,30.34,South,184,0.0,3.0,76,0.00,,,0.00,,2013-12-11 08:11:00,
2013-12-11 03:22:00,18.0,12.0,30.34,SSW,207,0.0,4.0,76,0.00,,,0.00,,2013-12-11 08:22:00,
2013-12-11 03:42:00,18.0,13.0,30.35,SE,142,0.0,5.0,79,0.00,,,0.00,,2013-12-11 08:42:00,
2013-12-11 03:52:00,18.0,14.0,30.35,SSE,161,1.0,5.0,83,0.00,,,0.00,,2013-12-11 08:52:00,
2013-12-11 04:11:00,17.0,13.0,30.35,SSE,165,1.0,5.0,85,0.00,,,0.00,,2013-12-11 09:11:00,
2013-12-11 04:22:00,17.0,14.0,30.34,SE,125,2.0,5.0,86,0.00,,,0.00,,2013-12-11 09:22:00,
2013-12-11 04:43:00,17.0,14.0,30.33,South,175,0.0,5.0,86,0.00,,,0.00,,2013-12-11 09:43:00,
2013-12-11 04:54:00,17.0,14.0,30.32,South,171,0.0,4.0,86,0.00,,,0.00,,2013-12-11 09:54:00,
2013-12-11 05:13:00,17.0,14.0,30.32,South,171,1.0,3.0,87,0.00,,,0.00,,2013-12-11 10:13:00,
2013-12-11 05:23:00,17.0,14.0,30.32,South,171,0.0,3.0,87,0.00,,,0.00,,2013-12-11 10:23:00,
2013-12-11 05:43:00,17.0,14.0,30.32,South,171,0.0,3.0,88,0.00,,,0.00,,2013-12-11 10:43:00,
2013-12-11 05:52:00,17.0,14.0,30.32,South,171,0.0,1.0,88,0.00,,,0.00,,2013-12-11 10:52:00,
2013-12-11 06:12:00,17.0,14.0,30.32,South,171,0.0,2.0,88,0.00,,,0.00,,2013-12-11 11:12:00,
2013-12-11 06:22:00,17.0,14.0,30.32,South,171,1.0,4.0,89,0.00,,,0.00,,2013-12-11 11:22:00,
2013-12-11 06:42:00,17.0,14.0,30.32,South,171,2.0,6.0,89,0.00,,,0.00,,2013-12-11 11:42:00,
2013-12-11 06:52:00,17.0,14.0,30.32,SE,144,2.0,5.0,89,0.00,,,0.00,,2013-12-11 11:52:00,
2013-12-11 07:11:00,17.0,14.0,30.33,SSE,157,1.0,5.0,89,0.00,,,0.00,,2013-12-11 12:11:00,
2013-12-11 07:22:00,17.0,14.0,30.33,South,180,2.0,4.0,89,0.00,,,0.00,,2013-12-11 12:22:00,
2013-12-11 07:42:00,17.0,14.0,30.34,SSE,150,1.0,6.0,89,0.00,,,0.00,,2013-12-11 12:42:00,
2013-12-11 07:52:00,17.0,14.0,30.35,SSW,213,1.0,6.0,89,0.00,,,0.00,,2013-12-11 12:52:00,
2013-12-11 08:12:00,17.0,15.0,30.35,SSE,165,2.0,7.0,90,0.00,,,0.00,,2013-12-11 13:12:00,
2013-12-11 08:22:00,17.0,15.0,30.36,South,180,2.0,7.0,90,0.00,,,0.00,,2013-12-11 13:22:00,
2013-12-11 08:42:00,17.0,14.0,30.36,South,178,1.0,6.0,89,0.00,,,0.00,,2013-12-11 13:42:00,
2013-12-11 08:52:00,17.0,15.0,30.36,SSE,166,1.0,6.0,90,0.00,,,0.00,,2013-12-11 13:52:00,
2013-12-11 09:11:00,18.0,16.0,30.37,South,171,0.0,4.0,90,0.00,,,0.00,,2013-12-11 14:11:00,
2013-12-11 09:21:00,18.0,16.0,30.37,SSE,161,0.0,7.0,90,0.00,,,0.00,,2013-12-11 14:21:00,
2013-12-11 09:42:00,18.0,15.0,30.37,SSE,155,0.0,6.0,89,0.00,,,0.00,,2013-12-11 14:42:00,
2013-12-11 09:52:00,19.0,16.0,30.37,SSE,157,0.0,3.0,89,0.00,,,0.00,,2013-12-11 14:52:00,
2013-12-11 10:11:00,19.0,16.0,30.37,SSE,157,0.0,3.0,89,0.00,,,0.00,,2013-12-11 15:11:00,
2013-12-11 10:22:00,20.0,17.0,30.38,SW,215,0.0,3.0,89,0.00,,,0.00,,2013-12-11 15:22:00,
2013-12-11 10:43:00,20.0,17.0,30.39,SW,215,0.0,2.0,89,0.00,,,0.00,,2013-12-11 15:43:00,
2013-12-11 10:53:00,21.0,18.0,30.39,SSW,207,0.0,2.0,89,0.00,,,0.00,,2013-12-11 15:53:00,
2013-12-11 11:13:00,21.0,18.0,30.39,SSW,209,0.0,2.0,89,0.00,,,0.00,,2013-12-11 16:13:00,
2013-12-11 11:23:00,22.0,19.0,30.39,SSW,213,0.0,2.0,88,0.00,,,0.00,,2013-12-11 16:23:00,
2013-12-11 11:43:00,23.0,20.0,30.38,South,183,0.0,2.0,87,0.00,,,0.00,,2013-12-11 16:43:00,
2013-12-11 11:52:00,23.0,20.0,30.38,NW,319,0.0,3.0,87,0.00,,,0.00,,2013-12-11 16:52:00,
2013-12-11 12:02:00,23.0,20.0,30.38,NW,319,0.0,3.0,87,0.00,,,0.00,,2013-12-11 17:02:00,
2013-12-11 12:22:00,23.0,20.0,30.37,NW,325,0.0,3.0,89,0.00,,,0.00,,2013-12-11 17:22:00,
2013-12-11 12:52:00,23.0,20.0,30.37,NNW,339,4.0,10.0,88,0.00,,,0.00,,2013-12-11 17:52:00,
2013-12-11 13:12:00,23.0,21.0,30.37,NW,319,4.0,8.0,90,0.00,,,0.00,,2013-12-11 18:12:00,
2013-12-11 13:22:00,23.0,20.0,30.37,NW,319,4.0,10.0,88,0.00,,,0.00,,2013-12-11 18:22:00,
2013-12-11 13:43:00,22.0,19.0,30.37,NNW,330,5.0,11.0,87,0.00,,,0.00,,2013-12-11 18:43:00,
2013-12-11 13:52:00,22.0,19.0,30.37,NNW,327,4.0,10.0,87,0.00,,,0.00,,2013-12-11 18:52:00,
2013-12-11 14:22:00,22.0,19.0,30.37,NW,326,3.0,6.0,88,0.00,,,0.00,,2013-12-11 19:22:00,
2013-12-11 14:42:00,22.0,19.0,30.38,NW,320,3.0,10.0,87,0.00,,,0.00,,2013-12-11 19:42:00,
2013-12-11 14:52:00,21.0,17.0,30.38,NNW,332,5.0,9.0,86,0.00,,,0.00,,2013-12-11 19:52:00,
2013-12-11 15:11:00,21.0,16.0,30.39,NNW,340,5.0,11.0,82,0.00,,,0.00,,2013-12-11 20:11:00,
2013-12-11 15:22:00,21.0,16.0,30.39,NNW,331,4.0,11.0,80,0.00,,,0.00,,2013-12-11 20:22:00,
2013-12-11 15:42:00,21.0,14.0,30.40,NW,313,4.0,9.0,75,0.00,,,0.00,,2013-12-11 20:42:00,
2013-12-11 15:52:00,20.0,15.0,30.41,WNW,291,6.0,13.0,82,0.00,,,0.00,,2013-12-11 20:52:00,
2013-12-11 16:11:00,20.0,16.0,30.41,NW,320,7.0,13.0,84,0.00,,,0.00,,2013-12-11 21:11:00,
2013-12-11 16:22:00,19.0,16.0,30.42,West,279,3.0,9.0,86,0.00,,,0.00,,2013-12-11 21:22:00,
2013-12-11 16:43:00,19.0,14.0,30.43,WNW,285,5.0,10.0,80,0.00,,,0.00,,2013-12-11 21:43:00,
2013-12-11 16:53:00,19.0,13.0,30.43,NNW,344,4.0,14.0,76,0.00,,,0.00,,2013-12-11 21:53:00,
2013-12-11 17:13:00,18.0,11.0,30.44,NNW,342,3.0,9.0,72,0.00,,,0.00,,2013-12-11 22:13:00,
2013-12-11 17:23:00,18.0,12.0,30.45,North,355,4.0,11.0,76,0.00,,,0.00,,2013-12-11 22:23:00,
2013-12-11 17:42:00,18.0,12.0,30.46,NNW,341,5.0,9.0,77,0.00,,,0.00,,2013-12-11 22:42:00,
2013-12-11 17:53:00,17.0,11.0,30.46,WNW,288,5.0,12.0,76,0.00,,,0.00,,2013-12-11 22:53:00,
2013-12-11 18:12:00,17.0,10.0,30.47,WNW,300,5.0,11.0,75,0.00,,,0.00,,2013-12-11 23:12:00,
2013-12-11 18:22:00,17.0,10.0,30.48,NW,304,4.0,10.0,74,0.00,,,0.00,,2013-12-11 23:22:00,
2013-12-11 18:43:00,17.0,10.0,30.48,NW,325,5.0,13.0,73,0.00,,,0.00,,2013-12-11 23:43:00,
2013-12-11 18:52:00,17.0,10.0,30.49,WNW,303,3.0,7.0,74,0.00,,,0.00,,2013-12-11 23:52:00,
2013-12-11 19:11:00,17.0,10.0,30.50,NNW,341,3.0,6.0,74,0.00,,,0.00,,2013-12-12 00:11:00,
2013-12-11 19:22:00,17.0,10.0,30.50,NNW,337,2.0,5.0,74,0.00,,,0.00,,2013-12-12 00:22:00,
2013-12-11 19:42:00,16.0,9.0,30.50,NNW,348,3.0,9.0,75,0.00,,,0.00,,2013-12-12 00:42:00,
2013-12-11 19:52:00,16.0,9.0,30.51,West,273,3.0,8.0,75,0.00,,,0.00,,2013-12-12 00:52:00,
2013-12-11 20:11:00,16.0,9.0,30.51,NNW,332,3.0,7.0,74,0.00,,,0.00,,2013-12-12 01:11:00,
2013-12-11 20:22:00,16.0,9.0,30.52,NNW,338,3.0,7.0,73,0.00,,,0.00,,2013-12-12 01:22:00,
2013-12-11 20:42:00,16.0,9.0,30.52,NNW,340,2.0,9.0,74,0.00,,,0.00,,2013-12-12 01:42:00,
2013-12-11 20:52:00,16.0,9.0,30.53,NNW,339,2.0,7.0,74,0.00,,,0.00,,2013-12-12 01:52:00,
2013-12-11 21:11:00,15.0,7.0,30.53,NNW,340,3.0,10.0,71,0.00,,,0.00,,2013-12-12 02:11:00,
2013-12-11 21:21:00,15.0,8.0,30.53,NNW,328,4.0,9.0,72,0.00,,,0.00,,2013-12-12 02:21:00,
2013-12-11 22:11:00,15.0,9.0,30.53,NNW,340,2.0,6.0,75,0.00,,,0.00,,2013-12-12 03:11:00,
2013-12-11 22:22:00,15.0,9.0,30.53,NNW,333,2.0,6.0,75,0.00,,,0.00,,2013-12-12 03:22:00,
2013-12-11 22:44:00,15.0,9.0,30.54,North,350,2.0,7.0,76,0.00,,,0.00,,2013-12-12 03:44:00,
2013-12-11 22:53:00,14.0,8.0,30.53,NNW,336,2.0,7.0,77,0.00,,,0.00,,2013-12-12 03:53:00,
2013-12-11 23:13:00,14.0,8.0,30.52,NNW,344,3.0,6.0,76,0.00,,,0.00,,2013-12-12 04:13:00,
2013-12-11 23:23:00,14.0,8.0,30.52,North,355,3.0,9.0,76,0.00,,,0.00,,2013-12-12 04:23:00,
2013-12-11 23:43:00,13.0,7.0,30.53,NW,314,2.0,7.0,75,0.00,,,0.00,,2013-12-12 04:43:00,
2013-12-11 23:52:00,12.0,6.0,30.53,North,350,1.0,3.0,76,0.00,,,0.00,,2013-12-12 04:52:00,